sensor_id;sensor_type;location;lat;lon;timestamp;temperature;humidity
3208;DHT22;1616;52.394;9.756;2024-03-22T00:00:43;10.40;99.90
3208;DHT22;1616;52.394;9.756;2024-03-22T00:03:09;10.40;99.90
3208;DHT22;1616;52.394;9.756;2024-03-22T00:05:34;10.40;99.90
3208;DHT22;1616;52.394;9.756;2024-03-22T00:08:00;10.40;99.90
3208;DHT22;1616;52.394;9.756;2024-03-22T00:10:25;10.40;99.90
3208;DHT22;1616;52.394;9.756;2024-03-22T00:12:51;10.50;99.90
3208;DHT22;1616;52.394;9.756;2024-03-22T00:15:17;11.00;99.90
3208;DHT22;1616;52.394;9.756;2024-03-22T00:17:44;10.50;99.90
3208;DHT22;1616;52.394;9.756;2024-03-22T00:20:10;10.50;99.90
3208;DHT22;1616;52.394;9.756;2024-03-22T00:22:36;10.50;99.90
3208;DHT22;1616;52.394;9.756;2024-03-22T00:25:01;10.60;99.90
3208;DHT22;1616;52.394;9.756;2024-03-22T00:27:27;10.60;99.90
3208;DHT22;1616;52.394;9.756;2024-03-22T00:29:53;10.60;99.90
3208;DHT22;1616;52.394;9.756;2024-03-22T00:32:18;10.60;99.90
3208;DHT22;1616;52.394;9.756;2024-03-22T00:34:44;10.60;99.90
3208;DHT22;1616;52.394;9.756;2024-03-22T00:37:10;10.60;99.90
3208;DHT22;1616;52.394;9.756;2024-03-22T00:39:36;10.70;99.90
3208;DHT22;1616;52.394;9.756;2024-03-22T00:42:03;10.70;99.90
3208;DHT22;1616;52.394;9.756;2024-03-22T00:44:28;10.70;99.90
3208;DHT22;1616;52.394;9.756;2024-03-22T00:46:54;10.70;99.90
3208;DHT22;1616;52.394;9.756;2024-03-22T00:49:20;10.80;99.90
3208;DHT22;1616;52.394;9.756;2024-03-22T00:51:45;10.80;99.90
3208;DHT22;1616;52.394;9.756;2024-03-22T00:54:12;10.80;99.90
3208;DHT22;1616;52.394;9.756;2024-03-22T00:56:38;10.80;99.90
3208;DHT22;1616;52.394;9.756;2024-03-22T00:59:03;10.90;99.90
3208;DHT22;1616;52.394;9.756;2024-03-22T01:01:29;10.90;99.90
3208;DHT22;1616;52.394;9.756;2024-03-22T01:03:54;10.90;99.90
3208;DHT22;1616;52.394;9.756;2024-03-22T01:06:20;11.00;99.90
3208;DHT22;1616;52.394;9.756;2024-03-22T01:08:51;11.00;99.90
3208;DHT22;1616;52.394;9.756;2024-03-22T01:11:20;11.00;99.90
3208;DHT22;1616;52.394;9.756;2024-03-22T01:13:46;11.00;99.90
3208;DHT22;1616;52.394;9.756;2024-03-22T01:16:12;11.10;99.90
3208;DHT22;1616;52.394;9.756;2024-03-22T01:18:37;11.10;99.90
3208;DHT22;1616;52.394;9.756;2024-03-22T01:21:04;11.10;99.90
3208;DHT22;1616;52.394;9.756;2024-03-22T01:23:31;11.10;99.90
3208;DHT22;1616;52.394;9.756;2024-03-22T01:25:58;11.10;99.90
3208;DHT22;1616;52.394;9.756;2024-03-22T01:28:24;11.20;99.90
3208;DHT22;1616;52.394;9.756;2024-03-22T01:30:49;11.20;99.90
3208;DHT22;1616;52.394;9.756;2024-03-22T01:33:15;11.20;99.90
3208;DHT22;1616;52.394;9.756;2024-03-22T01:35:40;11.30;99.90
3208;DHT22;1616;52.394;9.756;2024-03-22T01:38:07;11.30;99.90
3208;DHT22;1616;52.394;9.756;2024-03-22T01:40:33;11.30;99.90
3208;DHT22;1616;52.394;9.756;2024-03-22T01:43:00;11.30;99.90
3208;DHT22;1616;52.394;9.756;2024-03-22T01:45:25;11.30;99.90
3208;DHT22;1616;52.394;9.756;2024-03-22T01:47:52;11.30;99.90
3208;DHT22;1616;52.394;9.756;2024-03-22T01:50:22;11.40;99.90
3208;DHT22;1616;52.394;9.756;2024-03-22T01:52:47;11.40;99.90
3208;DHT22;1616;52.394;9.756;2024-03-22T01:55:14;11.40;99.90
3208;DHT22;1616;52.394;9.756;2024-03-22T01:57:40;11.40;99.90
3208;DHT22;1616;52.394;9.756;2024-03-22T02:00:06;11.40;99.90
3208;DHT22;1616;52.394;9.756;2024-03-22T02:02:34;11.50;99.90
3208;DHT22;1616;52.394;9.756;2024-03-22T02:05:11;11.50;99.90
3208;DHT22;1616;52.394;9.756;2024-03-22T02:07:38;11.50;99.90
3208;DHT22;1616;52.394;9.756;2024-03-22T02:10:03;11.50;99.90
3208;DHT22;1616;52.394;9.756;2024-03-22T02:12:30;11.50;99.90
3208;DHT22;1616;52.394;9.756;2024-03-22T02:14:59;11.50;99.90
3208;DHT22;1616;52.394;9.756;2024-03-22T02:17:24;11.50;99.90
3208;DHT22;1616;52.394;9.756;2024-03-22T02:19:50;11.50;99.90
3208;DHT22;1616;52.394;9.756;2024-03-22T02:22:15;11.50;99.90
3208;DHT22;1616;52.394;9.756;2024-03-22T02:24:42;11.50;99.90
3208;DHT22;1616;52.394;9.756;2024-03-22T02:27:08;11.50;99.90
3208;DHT22;1616;52.394;9.756;2024-03-22T02:29:34;11.50;99.90
3208;DHT22;1616;52.394;9.756;2024-03-22T02:32:00;11.50;99.90
3208;DHT22;1616;52.394;9.756;2024-03-22T02:34:26;11.50;99.90
3208;DHT22;1616;52.394;9.756;2024-03-22T02:36:53;11.50;99.90
3208;DHT22;1616;52.394;9.756;2024-03-22T02:39:18;11.50;99.90
3208;DHT22;1616;52.394;9.756;2024-03-22T02:41:44;11.40;99.90
3208;DHT22;1616;52.394;9.756;2024-03-22T02:44:11;11.40;99.90
3208;DHT22;1616;52.394;9.756;2024-03-22T02:46:36;11.50;99.90
3208;DHT22;1616;52.394;9.756;2024-03-22T02:49:02;11.50;99.90
3208;DHT22;1616;52.394;9.756;2024-03-22T02:51:27;11.50;99.90
3208;DHT22;1616;52.394;9.756;2024-03-22T02:53:53;11.50;99.90
3208;DHT22;1616;52.394;9.756;2024-03-22T02:56:18;11.50;99.90
3208;DHT22;1616;52.394;9.756;2024-03-22T02:58:44;11.50;99.90
3208;DHT22;1616;52.394;9.756;2024-03-22T03:01:10;11.50;99.90
3208;DHT22;1616;52.394;9.756;2024-03-22T03:03:35;11.40;99.90
3208;DHT22;1616;52.394;9.756;2024-03-22T03:06:03;11.50;99.90
3208;DHT22;1616;52.394;9.756;2024-03-22T03:08:30;11.50;99.90
3208;DHT22;1616;52.394;9.756;2024-03-22T03:10:55;11.50;99.90
3208;DHT22;1616;52.394;9.756;2024-03-22T03:13:22;11.50;99.90
3208;DHT22;1616;52.394;9.756;2024-03-22T03:15:49;11.50;99.90
3208;DHT22;1616;52.394;9.756;2024-03-22T03:18:14;11.50;99.90
3208;DHT22;1616;52.394;9.756;2024-03-22T03:20:40;11.40;99.90
3208;DHT22;1616;52.394;9.756;2024-03-22T03:23:05;11.50;99.90
3208;DHT22;1616;52.394;9.756;2024-03-22T03:25:32;11.50;99.90
3208;DHT22;1616;52.394;9.756;2024-03-22T03:27:59;11.40;99.90
3208;DHT22;1616;52.394;9.756;2024-03-22T03:30:24;11.40;99.90
3208;DHT22;1616;52.394;9.756;2024-03-22T03:32:50;11.40;99.90
3208;DHT22;1616;52.394;9.756;2024-03-22T03:35:16;11.40;99.90
3208;DHT22;1616;52.394;9.756;2024-03-22T03:37:42;11.40;99.90
3208;DHT22;1616;52.394;9.756;2024-03-22T03:40:08;11.40;99.90
3208;DHT22;1616;52.394;9.756;2024-03-22T03:42:34;11.30;99.90
3208;DHT22;1616;52.394;9.756;2024-03-22T03:44:59;11.40;99.90
3208;DHT22;1616;52.394;9.756;2024-03-22T03:47:25;11.30;99.90
3208;DHT22;1616;52.394;9.756;2024-03-22T03:49:50;11.40;99.90
3208;DHT22;1616;52.394;9.756;2024-03-22T03:52:17;11.30;99.90
3208;DHT22;1616;52.394;9.756;2024-03-22T03:54:43;11.30;99.90
3208;DHT22;1616;52.394;9.756;2024-03-22T03:57:10;11.30;99.90
3208;DHT22;1616;52.394;9.756;2024-03-22T03:59:36;11.30;99.90
3208;DHT22;1616;52.394;9.756;2024-03-22T04:02:01;11.30;99.90
3208;DHT22;1616;52.394;9.756;2024-03-22T04:04:27;11.30;99.90
3208;DHT22;1616;52.394;9.756;2024-03-22T04:06:52;11.40;99.90
3208;DHT22;1616;52.394;9.756;2024-03-22T04:09:19;11.30;99.90
3208;DHT22;1616;52.394;9.756;2024-03-22T04:11:45;11.40;99.90
3208;DHT22;1616;52.394;9.756;2024-03-22T04:14:10;11.40;99.90
3208;DHT22;1616;52.394;9.756;2024-03-22T04:16:36;11.40;99.90
3208;DHT22;1616;52.394;9.756;2024-03-22T04:19:01;11.40;99.90
3208;DHT22;1616;52.394;9.756;2024-03-22T04:21:28;11.40;99.90
3208;DHT22;1616;52.394;9.756;2024-03-22T04:23:55;11.40;99.90
3208;DHT22;1616;52.394;9.756;2024-03-22T04:26:21;11.50;99.90
3208;DHT22;1616;52.394;9.756;2024-03-22T04:28:46;11.50;99.90
3208;DHT22;1616;52.394;9.756;2024-03-22T04:31:12;11.50;99.90
3208;DHT22;1616;52.394;9.756;2024-03-22T04:33:38;11.50;99.90
3208;DHT22;1616;52.394;9.756;2024-03-22T04:36:04;11.50;99.90
3208;DHT22;1616;52.394;9.756;2024-03-22T04:38:30;11.50;99.90
3208;DHT22;1616;52.394;9.756;2024-03-22T04:40:57;11.50;99.90
3208;DHT22;1616;52.394;9.756;2024-03-22T04:43:23;11.40;99.90
3208;DHT22;1616;52.394;9.756;2024-03-22T04:45:51;11.40;99.90
3208;DHT22;1616;52.394;9.756;2024-03-22T04:48:19;11.40;99.90
3208;DHT22;1616;52.394;9.756;2024-03-22T04:50:45;11.40;99.90
3208;DHT22;1616;52.394;9.756;2024-03-22T04:53:11;11.40;99.90
3208;DHT22;1616;52.394;9.756;2024-03-22T04:55:37;11.40;99.90
3208;DHT22;1616;52.394;9.756;2024-03-22T04:58:03;11.40;99.90
3208;DHT22;1616;52.394;9.756;2024-03-22T05:00:30;11.30;99.90
3208;DHT22;1616;52.394;9.756;2024-03-22T05:02:56;11.30;99.90
3208;DHT22;1616;52.394;9.756;2024-03-22T05:05:21;11.40;99.90
3208;DHT22;1616;52.394;9.756;2024-03-22T05:07:47;11.40;99.90
3208;DHT22;1616;52.394;9.756;2024-03-22T05:10:12;11.40;99.90
3208;DHT22;1616;52.394;9.756;2024-03-22T05:12:39;11.40;99.90
3208;DHT22;1616;52.394;9.756;2024-03-22T05:15:07;11.40;99.90
3208;DHT22;1616;52.394;9.756;2024-03-22T05:17:33;11.40;99.90
3208;DHT22;1616;52.394;9.756;2024-03-22T05:20:00;11.40;99.90
3208;DHT22;1616;52.394;9.756;2024-03-22T05:22:27;11.40;99.90
3208;DHT22;1616;52.394;9.756;2024-03-22T05:24:53;11.40;99.90
3208;DHT22;1616;52.394;9.756;2024-03-22T05:27:18;11.40;99.90
3208;DHT22;1616;52.394;9.756;2024-03-22T05:29:44;11.40;99.90
3208;DHT22;1616;52.394;9.756;2024-03-22T05:32:10;11.50;99.90
3208;DHT22;1616;52.394;9.756;2024-03-22T05:34:35;11.40;99.90
3208;DHT22;1616;52.394;9.756;2024-03-22T05:37:02;11.50;99.90
3208;DHT22;1616;52.394;9.756;2024-03-22T05:39:28;11.40;99.90
3208;DHT22;1616;52.394;9.756;2024-03-22T05:41:56;11.50;99.90
3208;DHT22;1616;52.394;9.756;2024-03-22T05:44:24;11.50;99.90
3208;DHT22;1616;52.394;9.756;2024-03-22T05:46:50;11.60;99.90
3208;DHT22;1616;52.394;9.756;2024-03-22T05:49:16;11.60;99.90
3208;DHT22;1616;52.394;9.756;2024-03-22T05:51:42;11.60;99.90
3208;DHT22;1616;52.394;9.756;2024-03-22T05:54:08;11.60;99.90
3208;DHT22;1616;52.394;9.756;2024-03-22T05:56:34;11.60;99.90
3208;DHT22;1616;52.394;9.756;2024-03-22T05:59:00;11.70;99.90
3208;DHT22;1616;52.394;9.756;2024-03-22T06:01:26;11.70;99.90
3208;DHT22;1616;52.394;9.756;2024-03-22T06:03:51;11.80;99.90
3208;DHT22;1616;52.394;9.756;2024-03-22T06:06:18;11.80;99.90
3208;DHT22;1616;52.394;9.756;2024-03-22T06:08:44;11.80;99.90
3208;DHT22;1616;52.394;9.756;2024-03-22T06:11:10;11.90;99.90
3208;DHT22;1616;52.394;9.756;2024-03-22T06:13:37;11.90;99.90
3208;DHT22;1616;52.394;9.756;2024-03-22T06:16:02;12.00;99.90
3208;DHT22;1616;52.394;9.756;2024-03-22T06:18:29;12.00;99.90
3208;DHT22;1616;52.394;9.756;2024-03-22T06:20:55;12.00;99.90
3208;DHT22;1616;52.394;9.756;2024-03-22T06:23:23;12.00;99.90
3208;DHT22;1616;52.394;9.756;2024-03-22T06:25:52;12.10;99.90
3208;DHT22;1616;52.394;9.756;2024-03-22T06:28:18;12.10;99.90
3208;DHT22;1616;52.394;9.756;2024-03-22T06:30:44;12.10;99.90
3208;DHT22;1616;52.394;9.756;2024-03-22T06:33:09;12.10;99.90
3208;DHT22;1616;52.394;9.756;2024-03-22T06:35:35;12.10;99.90
3208;DHT22;1616;52.394;9.756;2024-03-22T06:38:00;12.10;99.90
3208;DHT22;1616;52.394;9.756;2024-03-22T06:40:28;12.20;99.90
3208;DHT22;1616;52.394;9.756;2024-03-22T06:42:54;12.20;99.90
3208;DHT22;1616;52.394;9.756;2024-03-22T06:45:20;12.30;99.90
3208;DHT22;1616;52.394;9.756;2024-03-22T06:47:45;12.30;99.90
3208;DHT22;1616;52.394;9.756;2024-03-22T06:50:13;12.30;99.90
3208;DHT22;1616;52.394;9.756;2024-03-22T06:52:39;12.40;99.90
3208;DHT22;1616;52.394;9.756;2024-03-22T06:55:05;12.40;99.90
3208;DHT22;1616;52.394;9.756;2024-03-22T06:57:31;12.50;99.90
3208;DHT22;1616;52.394;9.756;2024-03-22T06:59:59;12.50;99.90
3208;DHT22;1616;52.394;9.756;2024-03-22T07:02:25;12.60;99.90
3208;DHT22;1616;52.394;9.756;2024-03-22T07:04:51;12.60;99.90
3208;DHT22;1616;52.394;9.756;2024-03-22T07:07:18;12.70;99.90
3208;DHT22;1616;52.394;9.756;2024-03-22T07:09:43;12.70;99.90
3208;DHT22;1616;52.394;9.756;2024-03-22T07:12:09;12.80;99.90
3208;DHT22;1616;52.394;9.756;2024-03-22T07:14:34;12.90;99.90
3208;DHT22;1616;52.394;9.756;2024-03-22T07:17:00;13.00;99.90
3208;DHT22;1616;52.394;9.756;2024-03-22T07:19:26;13.10;99.90
3208;DHT22;1616;52.394;9.756;2024-03-22T07:21:54;13.30;99.90
3208;DHT22;1616;52.394;9.756;2024-03-22T07:24:19;13.40;99.90
3208;DHT22;1616;52.394;9.756;2024-03-22T07:26:49;13.50;99.90
3208;DHT22;1616;52.394;9.756;2024-03-22T07:29:15;13.60;99.90
3208;DHT22;1616;52.394;9.756;2024-03-22T07:31:41;13.70;99.90
3208;DHT22;1616;52.394;9.756;2024-03-22T07:34:07;13.80;99.90
3208;DHT22;1616;52.394;9.756;2024-03-22T07:36:37;13.90;99.90
3208;DHT22;1616;52.394;9.756;2024-03-22T07:39:03;13.90;99.90
3208;DHT22;1616;52.394;9.756;2024-03-22T07:41:32;14.00;99.90
3208;DHT22;1616;52.394;9.756;2024-03-22T07:44:01;14.00;99.90
3208;DHT22;1616;52.394;9.756;2024-03-22T07:46:27;14.10;99.90
3208;DHT22;1616;52.394;9.756;2024-03-22T07:48:53;14.10;99.90
3208;DHT22;1616;52.394;9.756;2024-03-22T07:51:19;14.10;99.90
3208;DHT22;1616;52.394;9.756;2024-03-22T07:53:45;14.10;99.90
3208;DHT22;1616;52.394;9.756;2024-03-22T07:56:11;14.20;99.90
3208;DHT22;1616;52.394;9.756;2024-03-22T07:58:37;14.20;99.90
3208;DHT22;1616;52.394;9.756;2024-03-22T08:01:03;14.20;99.90
3208;DHT22;1616;52.394;9.756;2024-03-22T08:03:29;14.20;99.90
3208;DHT22;1616;52.394;9.756;2024-03-22T08:05:54;14.20;99.90
3208;DHT22;1616;52.394;9.756;2024-03-22T08:08:22;14.20;99.90
3208;DHT22;1616;52.394;9.756;2024-03-22T08:10:47;14.20;99.90
3208;DHT22;1616;52.394;9.756;2024-03-22T08:13:13;14.20;99.90
3208;DHT22;1616;52.394;9.756;2024-03-22T08:15:39;14.20;99.90
3208;DHT22;1616;52.394;9.756;2024-03-22T08:18:06;14.20;99.90
3208;DHT22;1616;52.394;9.756;2024-03-22T08:20:33;14.20;99.90
3208;DHT22;1616;52.394;9.756;2024-03-22T08:22:59;14.30;99.90
3208;DHT22;1616;52.394;9.756;2024-03-22T08:25:25;14.30;99.90
3208;DHT22;1616;52.394;9.756;2024-03-22T08:27:51;14.40;99.90
3208;DHT22;1616;52.394;9.756;2024-03-22T08:30:21;14.50;99.90
3208;DHT22;1616;52.394;9.756;2024-03-22T08:32:46;14.50;99.90
3208;DHT22;1616;52.394;9.756;2024-03-22T08:35:12;14.60;99.90
3208;DHT22;1616;52.394;9.756;2024-03-22T08:37:39;14.60;99.90
3208;DHT22;1616;52.394;9.756;2024-03-22T08:40:05;14.70;99.90
3208;DHT22;1616;52.394;9.756;2024-03-22T08:42:31;14.70;99.90
3208;DHT22;1616;52.394;9.756;2024-03-22T08:44:57;14.70;99.90
3208;DHT22;1616;52.394;9.756;2024-03-22T08:47:23;14.70;99.90
3208;DHT22;1616;52.394;9.756;2024-03-22T08:49:49;14.70;99.90
3208;DHT22;1616;52.394;9.756;2024-03-22T08:52:15;14.70;99.90
3208;DHT22;1616;52.394;9.756;2024-03-22T08:54:40;14.70;99.90
3208;DHT22;1616;52.394;9.756;2024-03-22T08:57:06;14.70;99.90
3208;DHT22;1616;52.394;9.756;2024-03-22T08:59:32;14.60;99.90
3208;DHT22;1616;52.394;9.756;2024-03-22T09:01:58;14.60;99.90
3208;DHT22;1616;52.394;9.756;2024-03-22T09:04:25;14.60;99.90
3208;DHT22;1616;52.394;9.756;2024-03-22T09:06:51;14.50;99.90
3208;DHT22;1616;52.394;9.756;2024-03-22T09:09:17;14.50;99.90
3208;DHT22;1616;52.394;9.756;2024-03-22T09:11:44;14.50;99.90
3208;DHT22;1616;52.394;9.756;2024-03-22T09:14:09;14.40;99.90
3208;DHT22;1616;52.394;9.756;2024-03-22T09:16:35;14.40;99.90
3208;DHT22;1616;52.394;9.756;2024-03-22T09:19:01;14.40;99.90
3208;DHT22;1616;52.394;9.756;2024-03-22T09:21:26;14.40;99.40
3208;DHT22;1616;52.394;9.756;2024-03-22T09:23:52;14.40;99.90
3208;DHT22;1616;52.394;9.756;2024-03-22T09:26:18;14.40;99.90
3208;DHT22;1616;52.394;9.756;2024-03-22T09:28:46;14.40;99.90
3208;DHT22;1616;52.394;9.756;2024-03-22T09:31:12;14.40;99.90
3208;DHT22;1616;52.394;9.756;2024-03-22T09:33:37;14.40;99.90
3208;DHT22;1616;52.394;9.756;2024-03-22T09:36:03;14.50;99.90
3208;DHT22;1616;52.394;9.756;2024-03-22T09:38:29;14.50;99.70
3208;DHT22;1616;52.394;9.756;2024-03-22T09:41:01;14.50;99.40
3208;DHT22;1616;52.394;9.756;2024-03-22T09:43:31;14.40;99.00
3208;DHT22;1616;52.394;9.756;2024-03-22T09:45:58;14.50;98.90
3208;DHT22;1616;52.394;9.756;2024-03-22T09:48:25;14.50;98.80
3208;DHT22;1616;52.394;9.756;2024-03-22T09:50:54;14.60;98.50
3208;DHT22;1616;52.394;9.756;2024-03-22T09:53:22;14.70;98.20
3208;DHT22;1616;52.394;9.756;2024-03-22T09:55:49;14.70;97.50
3208;DHT22;1616;52.394;9.756;2024-03-22T09:58:15;14.70;97.20
3208;DHT22;1616;52.394;9.756;2024-03-22T10:00:44;14.70;96.80
3208;DHT22;1616;52.394;9.756;2024-03-22T10:03:10;14.70;96.80
3208;DHT22;1616;52.394;9.756;2024-03-22T10:05:36;14.80;96.90
3208;DHT22;1616;52.394;9.756;2024-03-22T10:08:03;14.90;96.60
3208;DHT22;1616;52.394;9.756;2024-03-22T10:10:31;15.00;96.30
3208;DHT22;1616;52.394;9.756;2024-03-22T10:12:57;15.10;96.10
3208;DHT22;1616;52.394;9.756;2024-03-22T10:15:24;15.20;95.90
3208;DHT22;1616;52.394;9.756;2024-03-22T10:17:49;15.30;95.20
3208;DHT22;1616;52.394;9.756;2024-03-22T10:20:15;15.40;94.50
3208;DHT22;1616;52.394;9.756;2024-03-22T10:22:59;15.40;93.80
3208;DHT22;1616;52.394;9.756;2024-03-22T10:25:28;15.50;93.50
3208;DHT22;1616;52.394;9.756;2024-03-22T10:27:55;15.60;93.60
3208;DHT22;1616;52.394;9.756;2024-03-22T10:30:22;15.70;92.80
3208;DHT22;1616;52.394;9.756;2024-03-22T10:32:49;15.70;92.50
3208;DHT22;1616;52.394;9.756;2024-03-22T10:35:16;15.80;92.00
3208;DHT22;1616;52.394;9.756;2024-03-22T10:37:42;15.80;91.40
3208;DHT22;1616;52.394;9.756;2024-03-22T10:40:09;15.70;90.60
3208;DHT22;1616;52.394;9.756;2024-03-22T10:42:39;15.70;90.70
3208;DHT22;1616;52.394;9.756;2024-03-22T10:45:06;15.60;90.90
3208;DHT22;1616;52.394;9.756;2024-03-22T10:47:33;15.60;90.90
3208;DHT22;1616;52.394;9.756;2024-03-22T10:50:06;15.50;90.90
3208;DHT22;1616;52.394;9.756;2024-03-22T10:52:39;15.30;92.20
3208;DHT22;1616;52.394;9.756;2024-03-22T10:55:07;15.20;93.60
3208;DHT22;1616;52.394;9.756;2024-03-22T10:57:34;15.10;94.40
3208;DHT22;1616;52.394;9.756;2024-03-22T11:00:04;15.20;94.80
3208;DHT22;1616;52.394;9.756;2024-03-22T11:02:38;15.30;94.90
3208;DHT22;1616;52.394;9.756;2024-03-22T11:05:04;15.50;94.50
3208;DHT22;1616;52.394;9.756;2024-03-22T11:07:31;15.60;93.70
3208;DHT22;1616;52.394;9.756;2024-03-22T11:09:57;15.70;94.20
3208;DHT22;1616;52.394;9.756;2024-03-22T11:12:25;15.90;92.40
3208;DHT22;1616;52.394;9.756;2024-03-22T11:14:52;15.90;91.70
3208;DHT22;1616;52.394;9.756;2024-03-22T11:17:18;16.10;91.40
3208;DHT22;1616;52.394;9.756;2024-03-22T11:19:44;16.10;91.10
3208;DHT22;1616;52.394;9.756;2024-03-22T11:22:09;16.20;90.00
3208;DHT22;1616;52.394;9.756;2024-03-22T11:24:37;16.20;89.20
3208;DHT22;1616;52.394;9.756;2024-03-22T11:27:03;16.30;88.10
3208;DHT22;1616;52.394;9.756;2024-03-22T11:29:29;16.40;88.10
3208;DHT22;1616;52.394;9.756;2024-03-22T11:31:54;16.50;88.10
3208;DHT22;1616;52.394;9.756;2024-03-22T11:34:20;16.50;88.20
3208;DHT22;1616;52.394;9.756;2024-03-22T11:36:47;16.50;88.10
3208;DHT22;1616;52.394;9.756;2024-03-22T11:39:15;16.40;86.60
3208;DHT22;1616;52.394;9.756;2024-03-22T11:41:41;16.30;86.40
3208;DHT22;1616;52.394;9.756;2024-03-22T11:44:07;16.30;87.20
3208;DHT22;1616;52.394;9.756;2024-03-22T11:46:32;16.30;87.20
3208;DHT22;1616;52.394;9.756;2024-03-22T11:48:59;16.20;86.60
3208;DHT22;1616;52.394;9.756;2024-03-22T11:51:24;16.20;86.10
3208;DHT22;1616;52.394;9.756;2024-03-22T11:53:51;16.10;86.00
3208;DHT22;1616;52.394;9.756;2024-03-22T11:56:20;16.00;85.40
3208;DHT22;1616;52.394;9.756;2024-03-22T11:58:48;16.00;86.00
3208;DHT22;1616;52.394;9.756;2024-03-22T12:01:18;16.00;87.70
3208;DHT22;1616;52.394;9.756;2024-03-22T12:03:46;16.00;87.60
3208;DHT22;1616;52.394;9.756;2024-03-22T12:06:12;15.90;87.60
3208;DHT22;1616;52.394;9.756;2024-03-22T12:08:38;15.90;87.80
3208;DHT22;1616;52.394;9.756;2024-03-22T12:11:10;15.90;87.60
3208;DHT22;1616;52.394;9.756;2024-03-22T12:13:38;15.80;87.50
3208;DHT22;1616;52.394;9.756;2024-03-22T12:16:04;15.80;87.50
3208;DHT22;1616;52.394;9.756;2024-03-22T12:18:30;15.70;87.40
3208;DHT22;1616;52.394;9.756;2024-03-22T12:20:57;15.70;87.40
3208;DHT22;1616;52.394;9.756;2024-03-22T12:23:23;15.60;87.30
3208;DHT22;1616;52.394;9.756;2024-03-22T12:25:50;15.60;87.30
3208;DHT22;1616;52.394;9.756;2024-03-22T12:28:17;15.50;87.20
3208;DHT22;1616;52.394;9.756;2024-03-22T12:30:42;15.50;87.20
3208;DHT22;1616;52.394;9.756;2024-03-22T12:33:09;15.40;87.20
3208;DHT22;1616;52.394;9.756;2024-03-22T12:35:39;15.40;87.20
3208;DHT22;1616;52.394;9.756;2024-03-22T12:38:06;15.40;88.20
3208;DHT22;1616;52.394;9.756;2024-03-22T12:40:32;15.30;89.00
3208;DHT22;1616;52.394;9.756;2024-03-22T12:42:59;15.30;89.50
3208;DHT22;1616;52.394;9.756;2024-03-22T12:45:25;15.30;90.00
3208;DHT22;1616;52.394;9.756;2024-03-22T12:47:51;15.20;90.30
3208;DHT22;1616;52.394;9.756;2024-03-22T12:50:17;15.20;90.60
3208;DHT22;1616;52.394;9.756;2024-03-22T12:52:43;15.20;90.80
3208;DHT22;1616;52.394;9.756;2024-03-22T12:55:10;15.20;91.10
3208;DHT22;1616;52.394;9.756;2024-03-22T12:57:36;15.20;91.20
3208;DHT22;1616;52.394;9.756;2024-03-22T13:00:02;15.20;91.30
3208;DHT22;1616;52.394;9.756;2024-03-22T13:02:29;15.10;91.40
3208;DHT22;1616;52.394;9.756;2024-03-22T13:04:58;15.10;91.70
3208;DHT22;1616;52.394;9.756;2024-03-22T13:07:23;15.10;91.70
3208;DHT22;1616;52.394;9.756;2024-03-22T13:09:50;15.00;91.90
3208;DHT22;1616;52.394;9.756;2024-03-22T13:12:17;15.00;92.10
3208;DHT22;1616;52.394;9.756;2024-03-22T13:14:43;15.00;92.40
3208;DHT22;1616;52.394;9.756;2024-03-22T13:17:09;14.90;92.70
3208;DHT22;1616;52.394;9.756;2024-03-22T13:19:35;14.90;92.80
3208;DHT22;1616;52.394;9.756;2024-03-22T13:22:01;14.90;92.90
3208;DHT22;1616;52.394;9.756;2024-03-22T13:24:26;14.90;93.10
3208;DHT22;1616;52.394;9.756;2024-03-22T13:26:52;14.80;93.30
3208;DHT22;1616;52.394;9.756;2024-03-22T13:29:17;14.80;93.70
3208;DHT22;1616;52.394;9.756;2024-03-22T13:31:43;14.80;94.00
3208;DHT22;1616;52.394;9.756;2024-03-22T13:34:09;14.80;94.40
3208;DHT22;1616;52.394;9.756;2024-03-22T13:36:34;14.70;94.50
3208;DHT22;1616;52.394;9.756;2024-03-22T13:39:04;14.70;94.80
3208;DHT22;1616;52.394;9.756;2024-03-22T13:41:30;14.60;94.90
3208;DHT22;1616;52.394;9.756;2024-03-22T13:43:55;14.60;95.20
3208;DHT22;1616;52.394;9.756;2024-03-22T13:46:21;14.50;95.70
3208;DHT22;1616;52.394;9.756;2024-03-22T13:48:49;14.50;96.10
3208;DHT22;1616;52.394;9.756;2024-03-22T13:51:14;14.50;96.60
3208;DHT22;1616;52.394;9.756;2024-03-22T13:53:40;14.50;96.70
3208;DHT22;1616;52.394;9.756;2024-03-22T13:56:07;14.50;96.70
3208;DHT22;1616;52.394;9.756;2024-03-22T13:58:32;14.40;96.80
3208;DHT22;1616;52.394;9.756;2024-03-22T14:00:59;14.40;97.10
3208;DHT22;1616;52.394;9.756;2024-03-22T14:03:25;14.40;97.30
3208;DHT22;1616;52.394;9.756;2024-03-22T14:05:51;14.40;97.70
3208;DHT22;1616;52.394;9.756;2024-03-22T14:08:17;14.30;97.80
3208;DHT22;1616;52.394;9.756;2024-03-22T14:10:42;14.40;98.00
3208;DHT22;1616;52.394;9.756;2024-03-22T14:13:08;14.30;98.10
3208;DHT22;1616;52.394;9.756;2024-03-22T14:15:34;14.20;98.40
3208;DHT22;1616;52.394;9.756;2024-03-22T14:18:01;14.30;98.40
3208;DHT22;1616;52.394;9.756;2024-03-22T14:20:26;14.20;98.60
3208;DHT22;1616;52.394;9.756;2024-03-22T14:22:52;14.20;98.60
3208;DHT22;1616;52.394;9.756;2024-03-22T14:25:18;14.10;98.90
3208;DHT22;1616;52.394;9.756;2024-03-22T14:27:44;13.90;99.10
3208;DHT22;1616;52.394;9.756;2024-03-22T14:30:14;13.70;99.90
3208;DHT22;1616;52.394;9.756;2024-03-22T14:32:41;13.50;99.90
3208;DHT22;1616;52.394;9.756;2024-03-22T14:35:07;13.20;99.90
3208;DHT22;1616;52.394;9.756;2024-03-22T14:37:34;13.00;99.90
3208;DHT22;1616;52.394;9.756;2024-03-22T14:39:59;12.90;99.90
3208;DHT22;1616;52.394;9.756;2024-03-22T14:42:26;12.70;99.90
3208;DHT22;1616;52.394;9.756;2024-03-22T14:44:52;12.60;99.90
3208;DHT22;1616;52.394;9.756;2024-03-22T14:47:21;12.50;99.90
3208;DHT22;1616;52.394;9.756;2024-03-22T14:49:49;12.40;99.90
3208;DHT22;1616;52.394;9.756;2024-03-22T14:52:14;12.30;99.90
3208;DHT22;1616;52.394;9.756;2024-03-22T14:54:40;12.20;99.90
3208;DHT22;1616;52.394;9.756;2024-03-22T14:57:05;12.10;99.90
3208;DHT22;1616;52.394;9.756;2024-03-22T14:59:31;12.00;99.90
3208;DHT22;1616;52.394;9.756;2024-03-22T15:01:56;11.90;99.90
3208;DHT22;1616;52.394;9.756;2024-03-22T15:04:22;11.90;99.90
3208;DHT22;1616;52.394;9.756;2024-03-22T15:06:48;11.80;99.90
3208;DHT22;1616;52.394;9.756;2024-03-22T15:09:19;11.80;99.90
3208;DHT22;1616;52.394;9.756;2024-03-22T15:11:45;11.80;99.90
3208;DHT22;1616;52.394;9.756;2024-03-22T15:14:14;11.80;99.90
3208;DHT22;1616;52.394;9.756;2024-03-22T15:16:40;11.80;99.90
3208;DHT22;1616;52.394;9.756;2024-03-22T15:19:08;11.80;99.90
3208;DHT22;1616;52.394;9.756;2024-03-22T15:21:34;11.70;99.90
3208;DHT22;1616;52.394;9.756;2024-03-22T15:24:00;11.70;99.90
3208;DHT22;1616;52.394;9.756;2024-03-22T15:26:26;11.70;99.90
3208;DHT22;1616;52.394;9.756;2024-03-22T15:28:53;11.70;99.90
3208;DHT22;1616;52.394;9.756;2024-03-22T15:31:18;11.70;99.90
3208;DHT22;1616;52.394;9.756;2024-03-22T15:33:44;11.70;99.90
3208;DHT22;1616;52.394;9.756;2024-03-22T15:36:10;11.60;99.90
3208;DHT22;1616;52.394;9.756;2024-03-22T15:38:36;11.60;99.90
3208;DHT22;1616;52.394;9.756;2024-03-22T15:41:02;11.70;99.90
3208;DHT22;1616;52.394;9.756;2024-03-22T15:43:28;11.70;99.90
3208;DHT22;1616;52.394;9.756;2024-03-22T15:45:54;11.70;99.90
3208;DHT22;1616;52.394;9.756;2024-03-22T15:48:20;11.70;99.90
3208;DHT22;1616;52.394;9.756;2024-03-22T15:50:47;11.70;99.90
3208;DHT22;1616;52.394;9.756;2024-03-22T15:53:13;11.70;99.90
3208;DHT22;1616;52.394;9.756;2024-03-22T15:55:39;11.60;99.90